Time;durP1;ratioP1;P1;durP2;ratioP2;P2;SDS_P1;SDS_P2;PMS_P1;PMS_P2;Temp;Humidity;BMP_temperature;BMP_pressure;BME280_temperature;BME280_humidity;BME280_pressure;Samples;Min_cycle;Max_cycle;Signal;HPM_P1;HPM_P2
2022/04/29 00:02:09;;;;;;;22.20;14.57;;;11.60;84.00;;;;;;5051939;28;20772;-45
2022/04/29 00:04:37;;;;;;;16.57;12.67;;;11.10;83.60;;;;;;5052262;28;20796;-45
2022/04/29 00:07:04;;;;;;;15.33;11.80;;;11.40;84.30;;;;;;5052167;28;20448;-44
2022/04/29 00:09:31;;;;;;;16.43;11.47;;;11.40;84.70;;;;;;5051678;28;20435;-45
2022/04/29 00:11:58;;;;;;;17.10;12.17;;;11.30;85.40;;;;;;5052002;28;20789;-45
2022/04/29 00:14:26;;;;;;;13.83;10.67;;;11.80;85.90;;;;;;5052193;28;20435;-45
2022/04/29 00:16:53;;;;;;;12.87;11.57;;;11.70;85.50;;;;;;5051882;28;20812;-45
2022/04/29 00:19:20;;;;;;;12.90;11.13;;;10.60;84.70;;;;;;5051641;28;20485;-45
2022/04/29 00:21:46;;;;;;;13.70;10.67;;;11.20;85.50;;;;;;5051904;28;20433;-46
2022/04/29 00:24:13;;;;;;;16.63;10.50;;;11.60;86.70;;;;;;5051838;28;20435;-45
2022/04/29 00:26:40;;;;;;;12.60;11.30;;;10.90;85.70;;;;;;5051842;28;20462;-45
2022/04/29 00:29:08;;;;;;;12.20;10.70;;;11.20;86.50;;;;;;5051665;28;20423;-45
2022/04/29 00:31:36;;;;;;;15.93;12.40;;;11.30;86.80;;;;;;5051734;28;20423;-45
2022/04/29 00:34:03;;;;;;;13.47;11.13;;;11.10;87.20;;;;;;5051953;28;20430;-45
2022/04/29 00:36:29;;;;;;;16.00;9.83;;;11.10;87.20;;;;;;5055406;28;20452;-46
2022/04/29 00:38:56;;;;;;;16.77;10.40;;;11.40;87.50;;;;;;5055539;28;20827;-45
2022/04/29 00:41:24;;;;;;;16.90;10.70;;;11.00;87.40;;;;;;5055953;28;20439;-45
2022/04/29 00:44:00;;;;;;;14.20;10.57;;;10.90;87.70;;;;;;5038131;28;20451;-45
2022/04/29 00:46:26;;;;;;;14.50;11.60;;;11.00;87.80;;;;;;5055631;28;20450;-45
2022/04/29 00:48:54;;;;;;;15.73;10.33;;;10.80;87.40;;;;;;5055518;28;20519;-44
2022/04/29 00:51:21;;;;;;;16.57;10.80;;;11.20;88.30;;;;;;5038083;28;20465;-44
2022/04/29 00:53:49;;;;;;;16.60;10.60;;;10.90;88.20;;;;;;5055705;28;20435;-44
2022/04/29 00:56:18;;;;;;;12.50;10.37;;;11.40;88.80;;;;;;5037641;28;20458;-45
2022/04/29 00:58:49;;;;;;;17.73;10.03;;;10.90;88.60;;;;;;5055180;28;21056;-45
2022/04/29 01:01:17;;;;;;;12.60;10.53;;;10.90;88.70;;;;;;5055276;28;20442;-45
2022/04/29 01:03:44;;;;;;;14.80;10.60;;;10.90;88.40;;;;;;5037631;28;20446;-45
2022/04/29 01:06:12;;;;;;;14.07;10.90;;;11.30;89.60;;;;;;5055262;28;20474;-45
2022/04/29 01:08:39;;;;;;;17.20;10.43;;;10.70;89.10;;;;;;5055198;28;20439;-45
2022/04/29 01:11:06;;;;;;;15.23;9.73;;;11.00;89.80;;;;;;5055301;28;20427;-44
2022/04/29 01:13:33;;;;;;;14.90;10.43;;;11.20;90.00;;;;;;5037331;28;20545;-45
2022/04/29 01:15:59;;;;;;;22.63;11.57;;;11.10;90.10;;;;;;5037167;28;20471;-45
2022/04/29 01:18:27;;;;;;;11.07;9.10;;;10.50;89.00;;;;;;5036843;28;21034;-44
2022/04/29 01:21:01;;;;;;;11.53;9.73;;;10.70;90.10;;;;;;5037129;28;20877;-45
2022/04/29 01:23:30;;;;;;;11.67;10.00;;;10.40;90.10;;;;;;5037189;28;20453;-45
2022/04/29 01:25:56;;;;;;;16.67;11.00;;;11.10;90.40;;;;;;5037265;28;21049;-45
2022/04/29 01:28:24;;;;;;;13.20;10.23;;;10.50;90.00;;;;;;5036956;28;20989;-45
2022/04/29 01:30:54;;;;;;;12.77;10.00;;;11.00;90.80;;;;;;5037057;28;20505;-46
2022/04/29 01:33:22;;;;;;;14.63;10.67;;;10.40;90.80;;;;;;5054809;28;20525;-44
2022/04/29 01:35:48;;;;;;;18.13;9.73;;;10.50;91.00;;;;;;5055217;28;20522;-45
2022/04/29 01:38:17;;;;;;;13.63;8.93;;;10.50;90.90;;;;;;5037718;28;20451;-45
2022/04/29 01:40:47;;;;;;;11.00;9.37;;;10.60;91.00;;;;;;5036660;28;20485;-44
2022/04/29 01:43:18;;;;;;;13.23;8.93;;;10.40;91.00;;;;;;5037068;28;20447;-44
2022/04/29 01:45:45;;;;;;;13.90;9.50;;;10.30;90.80;;;;;;5054384;28;20967;-45
2022/04/29 01:48:24;;;;;;;10.77;8.80;;;10.80;91.20;;;;;;5036227;28;20969;-44
2022/04/29 01:51:11;;;;;;;12.47;8.33;;;10.50;91.10;;;;;;5036954;28;20542;-45
2022/04/29 01:53:38;;;;;;;9.53;7.30;;;10.40;90.60;;;;;;5036715;28;20786;-45
2022/04/29 01:56:06;;;;;;;14.17;8.37;;;10.70;90.70;;;;;;5036617;28;20490;-45
2022/04/29 01:58:33;;;;;;;9.10;7.57;;;10.30;90.30;;;;;;5036166;28;20530;-44
2022/04/29 02:01:00;;;;;;;11.20;6.93;;;10.30;90.40;;;;;;5036477;28;20478;-46
2022/04/29 02:03:27;;;;;;;9.80;7.13;;;10.10;90.10;;;;;;5036661;28;20459;-45
2022/04/29 02:05:54;;;;;;;9.80;7.03;;;10.40;90.70;;;;;;5054233;28;20467;-45
2022/04/29 02:08:20;;;;;;;15.87;8.23;;;10.50;90.50;;;;;;5036444;28;20447;-44
2022/04/29 02:10:47;;;;;;;9.30;7.50;;;10.10;90.50;;;;;;5038050;28;20455;-44
2022/04/29 02:13:21;;;;;;;9.40;7.67;;;9.60;90.80;;;;;;5036910;28;20458;-44
2022/04/29 02:16:07;;;;;;;9.13;7.40;;;10.50;90.60;;;;;;5036156;28;21002;-46
2022/04/29 02:18:34;;;;;;;8.23;6.77;;;10.60;90.50;;;;;;5035984;28;20450;-45
2022/04/29 02:21:01;;;;;;;9.93;8.47;;;9.90;90.90;;;;;;5036299;28;20482;-45
2022/04/29 02:23:27;;;;;;;9.33;7.60;;;10.10;90.30;;;;;;5035907;28;20981;-45
2022/04/29 02:25:54;;;;;;;11.97;8.20;;;10.50;90.70;;;;;;5036079;28;20477;-45
2022/04/29 02:28:22;;;;;;;11.00;8.30;;;10.00;90.60;;;;;;5036116;28;20504;-44
2022/04/29 02:30:49;;;;;;;10.27;7.47;;;9.40;91.00;;;;;;5036412;28;20801;-44
2022/04/29 02:33:18;;;;;;;11.23;8.73;;;10.00;90.80;;;;;;5036117;28;20446;-45
2022/04/29 02:35:45;;;;;;;9.17;8.17;;;9.40;91.00;;;;;;5036272;28;21065;-44
2022/04/29 02:38:12;;;;;;;9.97;7.57;;;9.60;91.40;;;;;;5036034;28;20482;-44
2022/04/29 02:40:39;;;;;;;9.83;7.53;;;9.80;91.50;;;;;;5035641;28;20941;-45
2022/04/29 02:43:06;;;;;;;10.00;8.00;;;10.30;91.50;;;;;;5036196;28;20466;-44
2022/04/29 02:45:34;;;;;;;10.97;7.80;;;9.80;91.60;;;;;;5036030;28;20528;-45
2022/04/29 02:48:01;;;;;;;9.23;7.60;;;9.80;92.10;;;;;;5036079;28;20465;-44
2022/04/29 02:50:28;;;;;;;16.83;7.77;;;9.70;91.90;;;;;;5036426;28;20512;-44
2022/04/29 02:53:00;;;;;;;9.30;7.57;;;10.20;92.00;;;;;;5036992;28;20533;-44
2022/04/29 02:55:27;;;;;;;12.63;8.37;;;10.10;91.90;;;;;;5036296;28;20478;-44
2022/04/29 02:58:05;;;;;;;8.10;7.20;;;9.50;92.20;;;;;;5052990;28;20442;-44
2022/04/29 03:00:34;;;;;;;15.40;9.10;;;9.60;92.60;;;;;;5036180;28;20557;-45
2022/04/29 03:03:01;;;;;;;15.13;8.63;;;9.60;92.90;;;;;;5053107;28;20457;-44
2022/04/29 03:05:27;;;;;;;15.80;8.97;;;9.50;92.70;;;;;;5036614;28;20482;-45
2022/04/29 03:07:54;;;;;;;10.83;8.80;;;9.50;93.00;;;;;;5036208;28;20449;-46
2022/04/29 03:10:21;;;;;;;10.93;8.40;;;10.00;92.80;;;;;;5036127;28;20459;-44
2022/04/29 03:12:47;;;;;;;10.30;8.63;;;9.30;93.00;;;;;;5036151;28;20488;-44
2022/04/29 03:15:20;;;;;;;10.27;8.50;;;9.80;93.70;;;;;;5037684;28;20470;-45
2022/04/29 03:20:36;;;;;;;21.77;9.80;;;9.80;94.00;;;;;;5036091;28;20531;-44
2022/04/29 03:23:03;;;;;;;12.50;8.90;;;9.30;93.80;;;;;;5036016;28;20443;-44
2022/04/29 03:25:30;;;;;;;18.43;8.47;;;9.50;94.00;;;;;;5036115;28;20471;-46
2022/04/29 03:27:58;;;;;;;14.43;8.87;;;9.30;93.80;;;;;;5035879;28;20553;-44
2022/04/29 03:30:24;;;;;;;12.30;8.37;;;9.60;94.20;;;;;;5052423;28;20454;-44
2022/04/29 03:32:53;;;;;;;17.27;8.80;;;9.20;94.00;;;;;;5036971;28;20446;-45
2022/04/29 03:35:30;;;;;;;14.17;8.13;;;9.20;94.30;;;;;;5053910;28;20470;-45
2022/04/29 03:37:57;;;;;;;13.07;8.87;;;9.10;94.10;;;;;;5034911;28;20474;-46
2022/04/29 03:40:26;;;;;;;15.20;8.00;;;9.40;94.70;;;;;;5052256;28;20561;-45
2022/04/29 03:42:55;;;;;;;18.50;8.97;;;9.10;94.50;;;;;;5035359;28;20459;-44
2022/04/29 03:45:24;;;;;;;14.90;8.97;;;9.20;94.60;;;;;;5035164;28;20470;-45
2022/04/29 03:47:53;;;;;;;14.30;8.00;;;9.40;94.80;;;;;;5034869;28;20857;-46
2022/04/29 03:50:32;;;;;;;13.00;7.63;;;9.20;94.80;;;;;;5034733;28;20451;-44
2022/04/29 03:53:06;;;;;;;12.87;8.47;;;9.30;94.80;;;;;;5053073;28;20717;-44
2022/04/29 03:55:36;;;;;;;20.63;10.40;;;9.50;95.10;;;;;;5034820;28;20990;-45
2022/04/29 03:58:04;;;;;;;17.63;8.80;;;9.20;95.10;;;;;;5034827;28;20454;-45
2022/04/29 04:00:38;;;;;;;16.47;8.97;;;9.50;95.50;;;;;;5034336;28;20486;-45
2022/04/29 04:03:06;;;;;;;12.20;8.40;;;9.30;95.30;;;;;;5034702;28;20453;-44
2022/04/29 04:05:34;;;;;;;13.33;8.83;;;9.50;95.40;;;;;;5060995;22;20562;-51
2022/04/29 04:08:01;;;;;;;19.40;9.63;;;9.30;95.40;;;;;;5053352;28;20450;-51
2022/04/29 04:10:46;;;;;;;19.60;8.17;;;9.60;95.60;;;;;;5052570;28;20679;-51
2022/04/29 04:13:15;;;;;;;15.50;9.63;;;9.80;95.70;;;;;;5069890;28;20453;-51
2022/04/29 04:16:01;;;;;;;16.37;10.97;;;9.70;95.70;;;;;;5069973;28;21087;-51
2022/04/29 04:18:29;;;;;;;20.00;9.00;;;9.80;95.70;;;;;;5052902;28;20456;-51
2022/04/29 04:20:56;;;;;;;17.83;10.23;;;8.90;95.20;;;;;;5070059;28;20660;-51
2022/04/29 04:23:22;;;;;;;14.57;9.53;;;9.70;95.40;;;;;;5053378;28;20449;-53
2022/04/29 04:25:50;;;;;;;14.30;8.77;;;10.00;95.00;;;;;;5069755;28;20476;-51
2022/04/29 04:28:18;;;;;;;19.33;10.07;;;9.50;95.60;;;;;;5069684;28;20854;-51
2022/04/29 04:30:47;;;;;;;18.33;9.47;;;9.60;95.90;;;;;;5053124;28;20450;-51
2022/04/29 04:33:16;;;;;;;16.07;8.50;;;9.70;95.50;;;;;;5069977;28;20920;-51
2022/04/29 04:35:45;;;;;;;17.20;9.40;;;9.80;95.70;;;;;;5053094;28;20484;-51
2022/04/29 04:38:14;;;;;;;16.60;9.10;;;9.70;95.30;;;;;;5069850;28;20441;-53
2022/04/29 04:41:04;;;;;;;13.30;9.17;;;10.20;95.10;;;;;;5070868;28;20474;-52
2022/04/29 04:43:30;;;;;;;11.83;8.03;;;9.70;95.30;;;;;;5069634;28;20453;-52
2022/04/29 04:46:01;;;;;;;15.47;9.13;;;10.40;94.90;;;;;;5069533;28;20531;-53
2022/04/29 04:48:39;;;;;;;8.30;7.10;;;10.50;94.70;;;;;;5070803;28;20415;-52
2022/04/29 04:51:26;;;;;;;10.80;7.70;;;10.00;94.20;;;;;;5071402;28;20469;-52
2022/04/29 04:53:56;;;;;;;14.03;8.90;;;10.50;94.30;;;;;;5069482;28;20446;-52
2022/04/29 04:56:23;;;;;;;16.80;9.70;;;10.70;94.10;;;;;;5069442;28;20527;-52
2022/04/29 04:58:51;;;;;;;17.40;9.90;;;10.70;94.10;;;;;;5069330;28;20456;-52
2022/04/29 05:01:19;;;;;;;17.63;9.50;;;10.70;93.50;;;;;;5069470;28;20474;-52
2022/04/29 05:04:04;;;;;;;15.77;9.60;;;10.70;93.30;;;;;;5071258;28;20433;-53
2022/04/29 05:06:52;;;;;;;18.10;9.40;;;11.20;93.20;;;;;;5070646;28;20925;-52
2022/04/29 05:09:19;;;;;;;18.73;10.07;;;11.20;92.90;;;;;;5069550;28;20458;-52
2022/04/29 05:11:47;;;;;;;16.50;11.07;;;11.10;92.50;;;;;;5052655;28;20442;-52
2022/04/29 05:14:29;;;;;;;21.93;10.00;;;11.70;92.40;;;;;;5052781;28;20540;-52
2022/04/29 05:16:56;;;;;;;15.30;10.47;;;11.90;92.00;;;;;;5052287;28;20570;-52
2022/04/29 05:19:55;;;;;;;15.07;9.60;;;12.00;91.60;;;;;;5025700;28;20434;-53
2022/04/29 05:22:29;;;;;;;13.00;9.30;;;12.40;91.40;;;;;;5070702;28;20446;-53
2022/04/29 05:24:56;;;;;;;18.97;9.50;;;12.40;90.90;;;;;;5056103;28;20485;-52
2022/04/29 05:27:41;;;;;;;23.93;9.00;;;12.40;90.40;;;;;;5074415;28;20450;-52
2022/04/29 05:30:37;;;;;;;13.70;9.23;;;12.10;89.20;;;;;;5073508;28;20517;-52
2022/04/29 05:33:22;;;;;;;18.37;8.77;;;12.90;88.40;;;;;;5074455;28;20445;-52
2022/04/29 05:36:09;;;;;;;18.27;9.10;;;12.70;87.50;;;;;;5074036;28;20541;-52
2022/04/29 05:42:18;;;;;;;17.70;9.20;;;12.90;86.40;;;;;;5055261;28;20496;-52
2022/04/29 05:44:45;;;;;;;22.60;10.63;;;12.50;85.40;;;;;;5073447;28;20434;-52
2022/04/29 05:47:15;;;;;;;14.40;7.77;;;12.60;85.00;;;;;;5054749;28;20491;-51
2022/04/29 05:49:41;;;;;;;18.77;7.67;;;13.00;84.90;;;;;;5072086;28;20829;-52
2022/04/29 05:52:09;;;;;;;15.57;6.47;;;13.30;83.30;;;;;;5071942;28;20872;-52
2022/04/29 05:54:41;;;;;;;11.50;6.27;;;12.70;81.10;;;;;;5053929;28;20834;-54
2022/04/29 05:57:08;;;;;;;15.77;6.40;;;13.40;80.70;;;;;;5054962;28;21002;-53
2022/04/29 05:59:35;;;;;;;13.30;6.00;;;13.10;79.80;;;;;;5055052;28;20448;-52
2022/04/29 06:02:25;;;;;;;9.50;5.40;;;12.60;78.70;;;;;;5055293;28;20531;-54
2022/04/29 06:05:02;;;;;;;11.40;6.20;;;13.10;78.90;;;;;;5072055;28;20464;-54
2022/04/29 06:07:28;;;;;;;13.40;5.50;;;13.00;78.50;;;;;;5054921;28;21010;-52
2022/04/29 06:09:56;;;;;;;14.23;5.83;;;13.30;78.70;;;;;;5071530;28;20457;-52
2022/04/29 06:12:23;;;;;;;7.50;5.20;;;13.90;78.60;;;;;;5071398;28;20448;-52
2022/04/29 06:14:50;;;;;;;7.07;4.87;;;13.10;77.00;;;;;;5071602;28;20458;-52
2022/04/29 06:17:17;;;;;;;8.00;5.07;;;14.00;77.80;;;;;;5072971;28;20451;-52
2022/04/29 06:20:15;;;;;;;8.43;4.83;;;13.70;77.00;;;;;;5072836;28;20543;-51
2022/04/29 06:23:09;;;;;;;9.23;4.43;;;13.80;76.40;;;;;;5071334;28;21004;-52
2022/04/29 06:25:38;;;;;;;10.40;5.07;;;14.10;75.50;;;;;;5071752;28;20479;-52
2022/04/29 06:28:05;;;;;;;15.30;5.40;;;14.60;75.10;;;;;;5071415;28;20501;-52
2022/04/29 06:30:33;;;;;;;10.87;4.50;;;14.20;74.10;;;;;;5054545;28;20457;-52
2022/04/29 06:33:11;;;;;;;11.93;7.40;;;14.60;73.80;;;;;;5071072;28;21050;-52
2022/04/29 06:35:42;;;;;;;11.10;3.97;;;14.70;72.90;;;;;;5071274;28;20676;-52
2022/04/29 06:38:09;;;;;;;8.30;5.43;;;15.10;71.80;;;;;;5071067;28;20582;-52
2022/04/29 06:41:10;;;;;;;8.30;4.80;;;14.70;69.80;;;;;;5072214;28;20476;-52
2022/04/29 06:43:54;;;;;;;12.10;4.50;;;14.60;68.60;;;;;;5071492;28;20507;-52
2022/04/29 06:46:40;;;;;;;9.93;3.67;;;14.40;67.70;;;;;;5072144;28;20797;-53
2022/04/29 06:49:25;;;;;;;10.10;4.37;;;15.20;67.10;;;;;;5072342;28;20559;-53
2022/04/29 06:52:11;;;;;;;10.60;3.57;;;14.80;65.50;;;;;;5072249;28;20420;-52
2022/04/29 06:54:50;;;;;;;9.63;5.40;;;14.70;65.10;;;;;;5071334;28;20573;-52
2022/04/29 06:57:18;;;;;;;6.77;4.17;;;15.10;64.40;;;;;;5070582;28;20533;-52
2022/04/29 06:59:46;;;;;;;9.23;4.53;;;14.50;63.70;;;;;;5070511;28;20481;-52
2022/04/29 07:02:13;;;;;;;13.03;4.63;;;14.90;64.50;;;;;;5072075;28;20829;-52
2022/04/29 07:04:41;;;;;;;9.20;3.97;;;15.30;64.50;;;;;;5070476;28;20442;-53
2022/04/29 07:07:11;;;;;;;10.20;4.07;;;15.10;63.70;;;;;;5053680;28;20791;-52
2022/04/29 07:09:39;;;;;;;12.40;4.47;;;15.30;62.90;;;;;;5053621;28;20480;-53
2022/04/29 07:12:25;;;;;;;9.40;3.20;;;15.50;62.40;;;;;;5071802;28;20572;-53
2022/04/29 07:14:58;;;;;;;7.67;3.70;;;14.80;60.60;;;;;;5070226;28;20967;-51
2022/04/29 07:17:25;;;;;;;9.23;3.33;;;15.30;59.80;;;;;;5053404;28;20465;-52
2022/04/29 07:19:55;;;;;;;6.70;3.03;;;15.70;59.90;;;;;;5070227;28;20552;-53
2022/04/29 07:22:23;;;;;;;6.27;3.23;;;15.10;59.00;;;;;;5070093;28;20525;-52
2022/04/29 07:24:50;;;;;;;7.83;2.80;;;15.70;59.20;;;;;;5070222;28;20450;-53
2022/04/29 07:27:17;;;;;;;8.70;2.60;;;15.40;57.80;;;;;;5069779;28;20477;-52
2022/04/29 07:29:45;;;;;;;10.67;3.20;;;16.00;57.70;;;;;;5071099;28;20437;-53
2022/04/29 07:32:35;;;;;;;7.33;3.40;;;15.70;56.60;;;;;;5070329;28;20473;-53
2022/04/29 07:44:01;;;;;;;9.20;4.10;;;15.30;55.30;;;;;;5053232;28;20955;-53
2022/04/29 07:46:30;;;;;;;12.90;3.77;;;16.10;55.40;;;;;;5069635;28;20492;-52
2022/04/29 07:49:26;;;;;;;7.33;2.97;;;15.80;54.80;;;;;;5070624;28;20443;-52
2022/04/29 07:51:54;;;;;;;7.70;2.70;;;15.80;55.20;;;;;;5069915;28;21075;-52
2022/04/29 07:54:23;;;;;;;9.13;3.20;;;15.90;55.10;;;;;;5069839;28;20449;-52
2022/04/29 07:56:49;;;;;;;4.67;2.63;;;16.60;55.20;;;;;;5069942;28;20695;-52
2022/04/29 07:59:19;;;;;;;6.63;3.90;;;16.20;54.80;;;;;;5069988;28;20506;-52
2022/04/29 08:01:47;;;;;;;5.67;2.40;;;16.40;55.00;;;;;;5069906;28;20483;-52
2022/04/29 08:04:16;;;;;;;6.93;3.00;;;16.50;54.60;;;;;;5070175;28;20442;-52
2022/04/29 08:06:43;;;;;;;9.50;3.70;;;16.20;53.90;;;;;;5069813;28;20563;-51
2022/04/29 08:09:09;;;;;;;5.30;2.70;;;16.40;53.90;;;;;;5071743;28;20513;-51
2022/04/29 08:11:39;;;;;;;5.37;3.13;;;16.30;53.90;;;;;;5070608;28;20447;-52
2022/04/29 08:14:24;;;;;;;6.07;3.23;;;16.30;53.70;;;;;;5072384;28;20422;-52
2022/04/29 08:17:13;;;;;;;7.27;3.47;;;16.50;53.90;;;;;;5070572;28;20503;-52
2022/04/29 08:19:50;;;;;;;11.00;3.10;;;16.40;53.60;;;;;;5071276;28;20431;-52
2022/04/29 08:22:19;;;;;;;7.47;3.20;;;16.40;53.70;;;;;;5069694;28;20548;-52
2022/04/29 08:24:47;;;;;;;4.90;2.97;;;16.50;53.40;;;;;;5053254;28;20453;-52
2022/04/29 08:27:14;;;;;;;4.00;2.87;;;16.40;53.70;;;;;;5070564;28;20450;-52
2022/04/29 08:29:41;;;;;;;5.10;2.97;;;16.40;53.20;;;;;;5067808;28;20462;-52
2022/04/29 08:32:09;;;;;;;13.67;3.27;;;16.60;53.70;;;;;;5069168;28;21042;-54
2022/04/29 08:34:42;;;;;;;7.37;3.40;;;16.40;53.40;;;;;;5052848;28;20450;-52
2022/04/29 08:37:09;;;;;;;5.93;2.90;;;16.60;53.80;;;;;;5052457;28;20585;-52
2022/04/29 08:39:41;;;;;;;5.10;2.83;;;16.10;53.50;;;;;;5052100;28;20928;-52
2022/04/29 08:42:09;;;;;;;7.40;3.33;;;16.60;53.80;;;;;;5052387;28;20474;-52
2022/04/29 08:44:39;;;;;;;7.23;3.23;;;16.10;53.60;;;;;;5052733;28;20535;-52
2022/04/29 08:47:34;;;;;;;6.50;3.60;;;16.10;53.60;;;;;;5066530;28;20470;-52
2022/04/29 08:50:10;;;;;;;8.53;5.37;;;16.30;53.70;;;;;;5052410;28;20453;-53
2022/04/29 08:52:38;;;;;;;11.10;4.00;;;16.60;53.90;;;;;;5070947;28;20437;-52
2022/04/29 09:00:39;;;;;;;6.73;3.70;;;16.60;53.80;;;;;;5073906;28;20432;-52
2022/04/29 09:03:07;;;;;;;8.03;4.70;;;16.90;54.20;;;;;;5073897;28;20518;-52
2022/04/29 09:05:35;;;;;;;11.07;4.77;;;16.30;54.00;;;;;;5074107;28;20430;-53
2022/04/29 09:08:04;;;;;;;9.40;4.13;;;16.90;53.90;;;;;;5074483;28;20914;-52
2022/04/29 09:10:34;;;;;;;10.47;4.30;;;16.80;53.90;;;;;;5074183;28;20892;-52
2022/04/29 09:13:12;;;;;;;6.60;4.07;;;16.80;54.20;;;;;;5074340;28;20448;-52
2022/04/29 09:15:46;;;;;;;8.23;5.10;;;17.20;53.90;;;;;;5056268;28;20472;-52
2022/04/29 09:18:12;;;;;;;6.10;4.30;;;16.90;54.00;;;;;;5056007;28;20817;-52
2022/04/29 09:20:40;;;;;;;9.20;5.43;;;16.80;54.10;;;;;;5055834;28;20443;-51
2022/04/29 09:23:08;;;;;;;6.67;5.10;;;17.20;54.00;;;;;;5073467;28;20521;-52
2022/04/29 09:26:03;;;;;;;9.13;4.63;;;17.10;54.00;;;;;;5022811;28;20473;-52
2022/04/29 09:29:11;;;;;;;12.60;4.50;;;17.40;53.80;;;;;;5036113;28;20541;-52
2022/04/29 09:31:49;;;;;;;7.07;4.10;;;16.70;52.70;;;;;;5035980;28;20459;-51
2022/04/29 09:34:45;;;;;;;8.97;5.57;;;17.40;53.30;;;;;;5053880;28;20757;-51
2022/04/29 09:37:17;;;;;;;12.80;4.17;;;17.30;52.90;;;;;;5054032;28;20457;-52
2022/04/29 09:39:52;;;;;;;10.07;4.60;;;17.20;52.90;;;;;;5054028;28;20475;-52
2022/04/29 09:42:19;;;;;;;10.70;4.50;;;17.20;52.60;;;;;;5053822;28;20475;-53
2022/04/29 09:44:46;;;;;;;6.57;4.90;;;17.10;52.90;;;;;;5053939;28;20940;-53
2022/04/29 09:47:14;;;;;;;9.67;5.27;;;17.30;53.10;;;;;;5053162;28;20455;-52
2022/04/29 09:49:42;;;;;;;9.27;5.07;;;17.00;53.10;;;;;;5053361;28;20434;-52
2022/04/29 09:52:09;;;;;;;10.00;5.07;;;16.80;53.00;;;;;;5052191;28;20441;-52
2022/04/29 09:54:38;;;;;;;6.50;5.57;;;17.00;53.20;;;;;;5053291;28;20528;-52
2022/04/29 09:57:10;;;;;;;12.23;5.70;;;16.90;53.10;;;;;;5053346;28;20892;-53
2022/04/29 09:59:41;;;;;;;11.60;5.50;;;16.80;53.20;;;;;;5052821;28;20420;-51
2022/04/29 10:02:10;;;;;;;7.43;4.83;;;17.00;53.40;;;;;;5052049;28;20478;-51
2022/04/29 10:04:40;;;;;;;9.33;5.33;;;16.90;53.60;;;;;;5053488;28;20472;-52
2022/04/29 10:07:08;;;;;;;9.50;4.63;;;17.10;53.70;;;;;;5088958;22;20588;-47
2022/04/29 10:09:38;;;;;;;7.73;4.30;;;17.20;53.70;;;;;;5107202;28;20453;-47
2022/04/29 10:12:10;;;;;;;8.60;5.90;;;16.70;52.60;;;;;;5092132;28;20518;-50
2022/04/29 10:14:41;;;;;;;13.33;4.60;;;17.50;53.30;;;;;;5107627;28;20449;-48
2022/04/29 10:23:09;;;;;;;8.37;4.43;;;17.40;52.90;;;;;;5091813;28;20503;-48
2022/04/29 10:25:41;;;;;;;8.20;5.30;;;17.40;52.80;;;;;;5092224;28;20434;-48
2022/04/29 10:28:08;;;;;;;6.60;4.47;;;17.30;52.70;;;;;;5091484;28;20432;-49
2022/04/29 10:30:37;;;;;;;8.37;4.60;;;17.00;52.50;;;;;;5091592;28;20745;-47
2022/04/29 10:33:06;;;;;;;15.53;5.87;;;17.50;52.80;;;;;;5090701;28;20431;-48
2022/04/29 10:35:56;;;;;;;9.83;5.27;;;17.70;52.60;;;;;;5089441;28;20443;-48
2022/04/29 10:38:28;;;;;;;6.80;4.47;;;17.60;51.20;;;;;;5091582;28;20491;-49
2022/04/29 10:41:14;;;;;;;9.83;5.10;;;17.10;51.30;;;;;;5092004;28;20546;-47
2022/04/29 10:43:45;;;;;;;7.70;4.70;;;17.40;51.20;;;;;;5091781;28;20419;-48
2022/04/29 10:46:23;;;;;;;7.00;5.43;;;17.50;51.70;;;;;;5091578;28;20482;-48
2022/04/29 10:48:57;;;;;;;9.73;5.03;;;17.60;51.20;;;;;;5090179;28;20451;-48
2022/04/29 10:51:48;;;;;;;12.60;5.70;;;17.50;50.90;;;;;;5091868;28;20439;-48
2022/04/29 10:54:45;;;;;;;16.40;5.00;;;17.10;50.20;;;;;;5091462;28;20937;-48
2022/04/29 10:57:38;;;;;;;11.63;4.80;;;17.50;50.50;;;;;;5091851;28;20936;-48
2022/04/29 11:00:10;;;;;;;8.27;5.53;;;17.70;50.40;;;;;;5091133;28;20455;-48
2022/04/29 11:02:40;;;;;;;11.70;5.10;;;17.80;50.30;;;;;;5091719;28;20509;-49
2022/04/29 11:05:08;;;;;;;11.43;4.80;;;18.00;50.20;;;;;;5090030;28;21049;-49
2022/04/29 11:07:43;;;;;;;8.03;5.07;;;17.80;50.10;;;;;;5106443;28;21032;-48
2022/04/29 11:10:12;;;;;;;9.60;5.30;;;17.80;49.90;;;;;;5111508;28;20434;-48
2022/04/29 11:12:42;;;;;;;12.60;5.63;;;18.00;50.30;;;;;;5093762;28;20999;-48
2022/04/29 11:15:42;;;;;;;9.67;5.07;;;18.00;50.30;;;;;;5112470;28;20434;-48
2022/04/29 11:18:20;;;;;;;7.73;5.27;;;18.00;50.30;;;;;;5093479;28;20450;-47
2022/04/29 11:20:48;;;;;;;9.00;5.73;;;18.00;50.20;;;;;;5112411;28;20434;-48
2022/04/29 11:26:10;;;;;;;8.33;4.93;;;17.60;50.50;;;;;;5111714;28;20450;-49
2022/04/29 11:28:53;;;;;;;7.80;4.90;;;17.80;50.70;;;;;;5092871;28;20511;-48
2022/04/29 11:31:49;;;;;;;11.10;6.03;;;18.20;50.80;;;;;;5089314;28;20543;-48
2022/04/29 11:34:17;;;;;;;9.07;5.57;;;18.10;50.90;;;;;;5072450;28;20804;-48
2022/04/29 11:36:44;;;;;;;10.27;5.60;;;18.20;50.30;;;;;;5091081;28;20456;-48
2022/04/29 11:39:15;;;;;;;6.20;4.93;;;18.00;50.00;;;;;;5092277;28;20478;-47
2022/04/29 11:41:54;;;;;;;9.90;6.47;;;18.20;50.10;;;;;;5110966;28;20426;-48
2022/04/29 11:44:34;;;;;;;13.80;6.23;;;18.10;49.80;;;;;;5111016;28;20449;-49
2022/04/29 11:47:01;;;;;;;9.37;5.57;;;18.50;49.90;;;;;;5110893;28;20461;-48
2022/04/29 11:49:29;;;;;;;10.20;6.53;;;18.10;49.20;;;;;;5110311;28;20460;-48
2022/04/29 11:51:56;;;;;;;10.50;5.40;;;18.30;49.20;;;;;;5110164;28;20985;-48
2022/04/29 11:54:22;;;;;;;11.67;5.33;;;18.40;48.70;;;;;;5110527;28;20430;-47
2022/04/29 11:56:49;;;;;;;8.43;6.10;;;18.50;48.70;;;;;;5110382;28;20542;-49
2022/04/29 11:59:16;;;;;;;15.93;5.50;;;18.00;48.00;;;;;;5110227;28;20450;-48
2022/04/29 12:01:44;;;;;;;12.07;5.63;;;18.80;48.70;;;;;;5110090;28;20459;-49
2022/04/29 12:04:13;;;;;;;12.33;5.83;;;18.40;48.10;;;;;;5110307;28;20445;-49
2022/04/29 12:06:55;;;;;;;9.00;8.07;;;18.40;48.00;;;;;;5109783;28;20981;-48
2022/04/29 12:09:30;;;;;;;19.20;6.67;;;19.00;47.90;;;;;;5091614;28;20475;-48
2022/04/29 12:11:59;;;;;;;10.23;5.77;;;19.10;47.70;;;;;;5110813;28;20773;-48
2022/04/29 12:14:26;;;;;;;10.90;5.67;;;19.10;47.90;;;;;;5110596;28;20889;-47
2022/04/29 12:16:54;;;;;;;17.73;6.23;;;19.00;47.70;;;;;;5110950;28;20514;-48
2022/04/29 12:19:22;;;;;;;11.30;6.57;;;18.50;47.30;;;;;;5110513;28;20436;-49
2022/04/29 12:21:56;;;;;;;9.17;5.73;;;18.70;47.10;;;;;;5110583;28;20512;-48
2022/04/29 12:24:23;;;;;;;9.10;5.13;;;18.80;47.00;;;;;;5110445;28;20434;-48
2022/04/29 12:27:05;;;;;;;15.83;13.93;;;19.10;47.30;;;;;;5110545;28;20462;-47
2022/04/29 12:29:33;;;;;;;18.87;6.13;;;19.10;46.80;;;;;;5109979;28;20862;-49
2022/04/29 12:35:07;;;;;;;8.57;5.70;;;19.40;47.00;;;;;;5094192;28;20448;-47
2022/04/29 12:37:33;;;;;;;12.90;5.53;;;18.80;46.20;;;;;;5101633;28;20454;-49
2022/04/29 12:40:04;;;;;;;6.23;4.17;;;18.90;46.50;;;;;;5114226;28;20431;-48
2022/04/29 12:42:31;;;;;;;7.73;6.67;;;19.10;46.10;;;;;;5114853;28;20486;-48
2022/04/29 12:45:14;;;;;;;8.60;5.90;;;19.10;45.80;;;;;;5095597;28;20443;-48
2022/04/29 12:47:49;;;;;;;16.87;5.00;;;19.30;45.80;;;;;;5095835;28;20459;-48
2022/04/29 12:50:21;;;;;;;8.57;6.90;;;19.50;45.90;;;;;;5114052;28;20424;-48
2022/04/29 12:52:57;;;;;;;11.93;6.13;;;19.30;45.20;;;;;;5113420;28;20919;-48
2022/04/29 12:55:24;;;;;;;10.83;6.03;;;19.20;45.00;;;;;;5094979;28;20455;-48
2022/04/29 12:57:51;;;;;;;7.53;5.40;;;19.40;45.40;;;;;;5114275;28;20455;-48
2022/04/29 13:00:25;;;;;;;8.63;6.20;;;19.20;45.10;;;;;;5114139;28;20435;-48
2022/04/29 13:03:04;;;;;;;8.93;5.60;;;19.30;44.70;;;;;;5115201;28;20482;-49
2022/04/29 13:05:32;;;;;;;6.70;4.60;;;19.00;44.40;;;;;;5115417;28;20936;-49
2022/04/29 13:07:59;;;;;;;8.07;5.93;;;19.20;45.00;;;;;;5114375;28;20885;-48
2022/04/29 13:10:26;;;;;;;9.53;5.37;;;18.80;44.80;;;;;;5114947;28;20934;-48
2022/04/29 13:12:54;;;;;;;16.43;6.10;;;19.20;44.80;;;;;;5114292;28;20544;-49
2022/04/29 13:15:26;;;;;;;7.20;5.70;;;19.40;45.20;;;;;;5095553;28;20958;-48
2022/04/29 13:17:58;;;;;;;8.93;5.50;;;19.30;44.70;;;;;;5094888;28;20819;-47
2022/04/29 13:20:26;;;;;;;8.53;5.60;;;19.10;44.40;;;;;;5113538;28;20432;-48
2022/04/29 13:22:53;;;;;;;10.10;5.43;;;19.20;44.20;;;;;;5095293;28;20472;-49
2022/04/29 13:25:22;;;;;;;9.17;4.83;;;19.20;43.80;;;;;;5094891;28;20502;-48
2022/04/29 13:27:50;;;;;;;10.57;6.20;;;19.60;44.00;;;;;;5094486;28;20502;-49
2022/04/29 13:30:17;;;;;;;10.90;5.77;;;19.30;43.50;;;;;;5113000;28;20440;-48
2022/04/29 13:32:45;;;;;;;14.03;5.70;;;19.40;43.70;;;;;;5113583;28;20531;-49
2022/04/29 13:35:13;;;;;;;7.87;5.10;;;19.50;43.70;;;;;;5113711;28;20466;-49
2022/04/29 13:37:42;;;;;;;9.20;5.43;;;19.70;43.70;;;;;;5113137;28;20471;-49